Millenium Air

Millenium Air Since 1998



 METAR AND TAF INFORMATION
METAR FOR WITT
ADDS - METARS form results

(1951 UTC 21 April 2021)
Data provider http://aviationweather.gov/metar/data/
 
Forecast for: WITT (BANDA ACEH/BLANG, ID)
Text: TAF WITT 211700Z 2118/2218 23005KT 9000 SCT018
Forecast period: 1800 UTC 21 April 2021 to 1800 UTC 22 April 2021
Forecast type: FROM: standard forecast or significant change
Winds: from the SW (230 degrees) at 6 MPH (5 knots; 2.6 m/s)
Visibility: 6 miles (9 km)
Ceiling: at least 12,000 feet AGL
Clouds: scattered clouds at 1800 feet AGL
Weather: no significant weather forecast for this period
Text: TEMPO 2120/2122 00000KT 5000 RA FEWO16CB SCT017
Forecast period: 2000 to 2200 UTC 21 April 2021
Forecast type: TEMPORARY: The following changes expected for less than half the time period
Winds: calm
Visibility: 3 miles (5 km)
Ceiling: at least 12,000 feet AGL
Clouds: scattered clouds at 1700 feet AGL
Weather: RA  (moderate rain)

 AIRPORT MAP

 RUNWAY INFORMATION
Runway 17 Runway length 9843 ft Runway width 148 ft
Runway elevation 57 ft Runway displaced threshold 0 ft Runway heading 168
Runway 35 Runway length 9843 ft Runway width 148 ft
Runway elevation 65 ft Runway displaced threshold 0 ft Runway heading 348

 AIRPORT FREQUENCIES
Type AFIS Name TWR Frequency 122.2 MHZ
Type RDO Name BANDA ACEH Frequency 658.9 MHZ

 AIRPORT NEAR NAVIGATION AIDS
Type VOR-DME Name Banda Aceh Frequency 113400 KHZ
Type NDB Name Banda Aceh Frequency 330 KHZ